This is the latest recevied weather packets stored in our database for station/object WX5RP. If no packets are shown the sender has not sent any weather packets the latest 10 day(s).
| Time | Temp. | Humidity | Pressure | Rain* | Wind** | Luminosity | Snow |
|---|---|---|---|---|---|---|---|
| 1778217918 | 12.78° C | 50% | 1018.2 hPa | 0 mm | - | 0 W/m² | - |
| 1778217317 | 11.67° C | 52% | 1017.9 hPa | 0 mm | - | 0 W/m² | - |
| 1778216717 | 10° C | 61% | 1018.9 hPa | 0 mm | - | 0 W/m² | - |
| 1778216117 | 10.56° C | 56% | 1018 hPa | 0 mm | - | 0 W/m² | - |
| 1778215517 | 12.22° C | 53% | 1018.4 hPa | 0 mm | - | 0 W/m² | - |
| 1778214916 | 12.78° C | 46% | 1017.8 hPa | 0 mm | - | 0 W/m² | - |
| 1778214316 | 13.33° C | 48% | 1017.5 hPa | 0 mm | - | 0 W/m² | - |
| 1778213717 | 15° C | 41% | 1017.7 hPa | 0 mm | - | 0 W/m² | - |
| 1778213117 | 15.56° C | 39% | 1018.2 hPa | 0 mm | - | 0 W/m² | - |
| 1778212516 | 15° C | 40% | 1017.6 hPa | 0 mm | - | 0 W/m² | - |
| 1778211916 | 15° C | 42% | 1017.6 hPa | 0 mm | - | 0 W/m² | - |
| 1778211317 | 15° C | 42% | 1017 hPa | 0 mm | - | 0 W/m² | - |
| 1778210717 | 15.56° C | 41% | 1016.4 hPa | 0 mm | - | 0 W/m² | - |
| 1778210117 | 16.67° C | 36% | 1016.4 hPa | 0 mm | - | 0 W/m² | - |
| 1778209516 | 17.22° C | 35% | 1016.7 hPa | 0 mm | - | 7 W/m² | - |
| 1778208918 | 17.78° C | 31% | 1016.5 hPa | 0 mm | - | 12 W/m² | - |
| 1778208316 | 18.89° C | 28% | 1016.4 hPa | 0 mm | - | 15 W/m² | - |
| 1778207716 | 19.44° C | 29% | 1016.3 hPa | 0 mm | - | 26 W/m² | - |
| 1778207116 | 20° C | 27% | 1015.7 hPa | 0 mm | - | 48 W/m² | - |
| 1778206518 | 20.56° C | 24% | 1015.6 hPa | 0 mm | - | 71 W/m² | - |
| 1778205916 | 21.11° C | 23% | 1016.5 hPa | 0 mm | - | 107 W/m² | - |
| 1778205316 | 21.67° C | 23% | 1016.2 hPa | 0 mm | - | 146 W/m² | - |
| 1778204716 | 21.67° C | 23% | 1015.9 hPa | 0 mm | - | 149 W/m² | - |
| 1778204116 | 22.22° C | 23% | 1015.9 hPa | 0 mm | - | 146 W/m² | - |
| 1778203516 | 22.22° C | 23% | 1015.6 hPa | 0 mm | - | 107 W/m² | - |
* Rain latest hour (hover to see other rain measurements)
** Current wind speed in m/s (hover to see current wind gust speed)